CheckWX is a tool to help pilots better visualize weather data.  It is not intended as a substitute for an official pre-flight weather briefing.

11:31:34 UTC

KDKB METAR
De Kalb Taylor Municipal Airport
De Kalb, Illinois, USA
Current

17 mins ago

KDKB 241115Z AUTO 21006KT 1/4SM FG OVC001 19/19 A2965 RMK AO2 T01920192
Observed
Jun-24 @ 11:15 UTC
Wind
  • 210° at 6 KTS
Visibility
1/4 SM
Flight Rules
LIFR
Conditions
Fog
Cloud Levels
  • Overcast at 100' AGL
Temperature
19°C / 66°F
Dewpoint
19°C / 66°F
Humidity
100%
Altimeter
29.65" Hg
Pressure
1004.02 hPa
Previous

37 mins ago

KDKB 241055Z AUTO 20007KT 1/4SM FG OVC001 19/19 A2965 RMK AO2 T01900190
Observed
Jun-24 @ 10:55 UTC
Wind
  • 200° at 7 KTS
Visibility
1/4 SM
Flight Rules
LIFR
Conditions
Fog
Cloud Levels
  • Overcast at 100' AGL
Temperature
19°C / 66°F
Dewpoint
19°C / 66°F
Humidity
100%
Altimeter
29.65" Hg
Pressure
1004.02 hPa
Previous

57 mins ago

KDKB 241035Z AUTO 19006KT 1/4SM FG OVC001 19/19 A2965 RMK AO2 T01880188
Observed
Jun-24 @ 10:35 UTC
Wind
  • 190° at 6 KTS
Visibility
1/4 SM
Flight Rules
LIFR
Conditions
Fog
Cloud Levels
  • Overcast at 100' AGL
Temperature
19°C / 66°F
Dewpoint
19°C / 66°F
Humidity
100%
Altimeter
29.65" Hg
Pressure
1004.02 hPa